Time;durP1;ratioP1;P1;durP2;ratioP2;P2;SDS_P1;SDS_P2;PMS_P1;PMS_P2;Temp;Humidity;BMP_temperature;BMP_pressure;BME280_temperature;BME280_humidity;BME280_pressure;Samples;Min_cycle;Max_cycle;Signal;HPM_P1;HPM_P2
2023/07/11 00:01:43;;;;;;;6.53;3.03;;;;;;;19.17;63.36;100667.72;10434198;28;20049;-74
2023/07/11 00:06:46;;;;;;;4.22;2.75;;;;;;;19.13;63.40;100663.66;10434111;28;20053;-74
2023/07/11 00:11:49;;;;;;;5.93;2.63;;;;;;;19.13;63.58;100667.25;10440134;28;20061;-74
2023/07/11 00:16:54;;;;;;;7.70;3.15;;;;;;;18.98;63.50;100660.81;10443835;28;20046;-74
2023/07/11 00:21:57;;;;;;;7.50;2.53;;;;;;;18.94;63.30;100657.56;10436490;28;20083;-74
2023/07/11 00:27:00;;;;;;;5.35;2.78;;;;;;;18.90;63.24;100661.69;10432543;28;20045;-74
2023/07/11 00:32:05;;;;;;;10.13;3.90;;;;;;;18.78;63.43;100654.88;10437283;28;20044;-74
2023/07/11 00:37:10;;;;;;;7.20;2.78;;;;;;;18.73;63.50;100647.22;10436769;28;20120;-74
2023/07/11 00:42:13;;;;;;;8.55;3.60;;;;;;;18.79;63.52;100641.09;10441087;28;20079;-74
2023/07/11 00:47:17;;;;;;;6.57;2.55;;;;;;;18.77;63.41;100640.38;10442712;28;20052;-76
2023/07/11 00:52:22;;;;;;;7.20;2.53;;;;;;;18.61;63.27;100642.28;10439510;28;20041;-74
2023/07/11 00:57:27;;;;;;;4.97;2.53;;;;;;;18.49;63.46;100630.91;10448362;28;20041;-73
2023/07/11 01:02:31;;;;;;;6.38;3.05;;;;;;;18.45;63.80;100627.66;10439773;28;20037;-74
2023/07/11 01:07:37;;;;;;;5.15;2.88;;;;;;;18.21;64.27;100623.06;10441059;28;20033;-74
2023/07/11 01:12:45;;;;;;;7.30;2.70;;;;;;;18.09;64.77;100627.97;10433077;28;20049;-74
2023/07/11 01:17:49;;;;;;;7.85;3.47;;;;;;;18.22;64.44;100623.91;10435620;28;20053;-74
2023/07/11 01:22:55;;;;;;;7.18;2.65;;;;;;;18.20;64.28;100605.03;10433256;28;20048;-74
2023/07/11 01:27:58;;;;;;;8.25;3.33;;;;;;;18.13;64.40;100604.03;10437038;28;20037;-73
2023/07/11 01:33:01;;;;;;;7.78;3.33;;;;;;;18.02;64.79;100604.34;10436275;28;20562;-74
2023/07/11 01:38:06;;;;;;;5.63;2.70;;;;;;;17.98;64.65;100598.41;10433098;28;20045;-75
2023/07/11 01:43:09;;;;;;;3.97;2.50;;;;;;;17.95;64.84;100589.69;10431901;28;20045;-74
2023/07/11 01:48:12;;;;;;;9.80;3.22;;;;;;;17.98;64.85;100583.97;10433109;28;20131;-74
2023/07/11 01:53:17;;;;;;;9.57;2.88;;;;;;;17.95;64.77;100582.41;10432940;28;20492;-74
2023/07/11 01:58:19;;;;;;;12.95;3.03;;;;;;;17.92;64.57;100572.72;10434363;28;20041;-74
2023/07/11 02:03:23;;;;;;;6.57;3.08;;;;;;;17.84;64.69;100578.13;10432708;28;20522;-73
2023/07/11 02:08:27;;;;;;;4.72;2.92;;;;;;;17.81;64.78;100583.91;10441222;28;20076;-74
2023/07/11 02:13:30;;;;;;;4.72;2.72;;;;;;;17.73;65.16;100572.19;10445380;28;20041;-74
2023/07/11 02:18:33;;;;;;;6.65;3.25;;;;;;;17.61;65.10;100582.50;10442974;28;20036;-73
2023/07/11 02:23:37;;;;;;;8.60;3.20;;;;;;;17.54;65.32;100576.88;10446503;28;20045;-74
2023/07/11 02:28:40;;;;;;;3.80;2.70;;;;;;;17.48;65.93;100578.38;10440165;28;20061;-74
2023/07/11 02:33:44;;;;;;;9.35;3.15;;;;;;;17.36;66.22;100573.41;10443164;28;20060;-74
2023/07/11 02:38:48;;;;;;;7.68;3.05;;;;;;;17.24;66.42;100567.44;10439015;28;20196;-74
2023/07/11 02:43:51;;;;;;;8.43;2.97;;;;;;;17.17;66.95;100559.09;10446052;28;20041;-74
2023/07/11 02:48:55;;;;;;;11.52;3.78;;;;;;;17.28;66.45;100548.94;10443567;28;20069;-74
2023/07/11 02:53:59;;;;;;;9.30;3.13;;;;;;;17.23;66.38;100558.44;10457895;28;20495;-74
2023/07/11 02:59:03;;;;;;;9.07;3.05;;;;;;;17.18;66.52;100552.66;10441408;28;20037;-74
2023/07/11 03:04:06;;;;;;;13.75;4.07;;;;;;;17.18;66.67;100554.53;10442719;28;20511;-74
2023/07/11 03:09:10;;;;;;;9.27;3.10;;;;;;;17.20;66.29;100545.22;10445524;28;20037;-75
2023/07/11 03:14:13;;;;;;;10.02;3.35;;;;;;;17.17;66.27;100541.97;10441442;28;20486;-75
2023/07/11 03:19:16;;;;;;;5.43;3.03;;;;;;;17.19;66.31;100546.19;10444590;28;20094;-73
2023/07/11 03:24:20;;;;;;;10.55;3.55;;;;;;;17.15;66.02;100531.28;10433141;28;20053;-74
2023/07/11 03:29:23;;;;;;;5.43;3.40;;;;;;;17.15;65.96;100533.13;10439376;28;20407;-76
2023/07/11 03:34:26;;;;;;;8.40;3.50;;;;;;;17.19;65.90;100523.63;10443670;28;20045;-74
2023/07/11 03:39:30;;;;;;;9.00;3.38;;;;;;;17.17;65.96;100523.81;10439293;28;20042;-74
2023/07/11 03:44:34;;;;;;;13.30;3.22;;;;;;;17.06;66.06;100515.94;10442581;28;20037;-74
2023/07/11 03:49:37;;;;;;;8.55;3.50;;;;;;;17.09;66.24;100506.63;10434350;28;20045;-73
2023/07/11 03:54:41;;;;;;;8.18;3.53;;;;;;;17.14;66.16;100505.16;10436863;28;20037;-74
2023/07/11 03:59:44;;;;;;;8.38;3.75;;;;;;;17.26;65.60;100494.84;10445174;28;20124;-73
2023/07/11 04:04:47;;;;;;;8.20;3.35;;;;;;;17.37;65.73;100499.94;10440117;28;20042;-74
2023/07/11 04:09:51;;;;;;;5.75;3.17;;;;;;;17.42;65.50;100497.59;10441655;28;20408;-73
2023/07/11 04:14:54;;;;;;;10.05;3.05;;;;;;;17.60;65.08;100485.72;10432685;28;20041;-74
2023/07/11 04:19:56;;;;;;;9.60;3.10;;;;;;;17.66;64.60;100487.75;10439686;28;20049;-75
2023/07/11 04:25:01;;;;;;;7.18;2.78;;;;;;;17.59;64.34;100482.16;10442484;28;20366;-74
2023/07/11 04:30:05;;;;;;;5.70;2.78;;;;;;;17.78;64.10;100474.72;10444597;28;20037;-74
2023/07/11 04:35:13;;;;;;;8.15;2.80;;;;;;;17.81;64.15;100469.78;10440347;28;20041;-73
2023/07/11 04:40:18;;;;;;;5.20;2.40;;;;;;;17.88;64.34;100467.22;10431305;28;20060;-74
2023/07/11 04:45:21;;;;;;;7.88;2.80;;;;;;;17.95;64.05;100464.69;10438834;28;20059;-74
2023/07/11 04:50:24;;;;;;;8.10;3.10;;;;;;;17.99;64.04;100457.91;10445750;28;20377;-75
2023/07/11 04:55:28;;;;;;;7.70;3.38;;;;;;;18.08;63.97;100460.47;10443990;28;20044;-73
2023/07/11 05:00:31;;;;;;;5.85;2.80;;;;;;;18.24;63.71;100458.72;10446989;28;20067;-74
2023/07/11 05:05:35;;;;;;;6.95;2.75;;;;;;;18.43;63.56;100452.94;10432594;28;20033;-74
2023/07/11 05:10:48;;;;;;;3.10;2.05;;;;;;;18.68;63.91;100440.09;10442168;28;20033;-74
2023/07/11 05:15:52;;;;;;;5.20;2.58;;;;;;;18.78;63.39;100429.88;10445268;28;20057;-75
2023/07/11 05:20:55;;;;;;;9.93;3.08;;;;;;;18.86;63.30;100430.88;10441293;28;20049;-73
2023/07/11 05:25:59;;;;;;;10.93;2.58;;;;;;;19.05;62.87;100422.25;10436271;28;20056;-73
2023/07/11 05:31:03;;;;;;;5.60;2.55;;;;;;;19.21;62.76;100418.59;10427865;28;20073;-74
2023/07/11 05:36:33;;;;;;;5.85;2.47;;;;;;;19.20;61.85;100412.31;10441602;28;20045;-73
2023/07/11 05:41:41;;;;;;;4.57;2.55;;;;;;;19.29;61.85;100409.53;10453137;28;20582;-74
2023/07/11 05:46:45;;;;;;;8.95;2.80;;;;;;;19.48;61.77;100410.91;10436667;28;20057;-74
2023/07/11 05:51:50;;;;;;;6.65;2.58;;;;;;;19.64;61.39;100399.94;10425428;28;20041;-74
2023/07/11 05:56:54;;;;;;;6.10;2.90;;;;;;;19.76;60.62;100394.88;10442796;28;20060;-74
2023/07/11 06:01:57;;;;;;;4.78;2.85;;;;;;;19.78;60.85;100399.09;10447061;28;20829;-74
2023/07/11 06:07:00;;;;;;;4.72;2.35;;;;;;;19.95;61.11;100397.06;10440352;28;20037;-74
2023/07/11 06:12:06;;;;;;;11.77;3.03;;;;;;;20.05;60.80;100389.47;10444169;28;20053;-74
2023/07/11 06:17:10;;;;;;;5.63;2.78;;;;;;;20.24;60.28;100379.91;10427344;28;20045;-74
2023/07/11 06:22:13;;;;;;;7.30;3.08;;;;;;;20.27;59.32;100374.06;10429002;28;20054;-74
2023/07/11 06:27:18;;;;;;;7.55;3.20;;;;;;;20.49;59.60;100374.19;10440080;28;20048;-74
2023/07/11 06:32:20;;;;;;;11.52;4.00;;;;;;;20.59;58.94;100371.16;10447591;28;20045;-73
2023/07/11 06:37:24;;;;;;;6.88;2.75;;;;;;;20.81;58.74;100374.78;10447386;28;20045;-74
2023/07/11 06:42:28;;;;;;;9.23;2.75;;;;;;;21.08;58.01;100365.03;10445760;28;20484;-73
2023/07/11 06:47:31;;;;;;;6.80;2.97;;;;;;;21.43;57.79;100363.28;10439362;28;20056;-74
2023/07/11 06:52:34;;;;;;;5.63;2.92;;;;;;;21.73;57.53;100358.50;10445520;28;20036;-74
2023/07/11 06:57:40;;;;;;;4.55;2.70;;;;;;;21.79;57.19;100343.22;10443182;28;20538;-74
2023/07/11 07:02:43;;;;;;;10.13;3.15;;;;;;;22.23;56.96;100334.66;10451574;28;20049;-76
2023/07/11 07:07:46;;;;;;;10.75;2.97;;;;;;;22.30;55.72;100334.72;10445561;28;20057;-75
2023/07/11 07:12:54;;;;;;;6.43;2.90;;;;;;;22.58;55.34;100329.16;10449097;28;20058;-74
2023/07/11 07:17:57;;;;;;;6.25;2.85;;;;;;;22.91;55.13;100320.22;10443517;28;20046;-73
2023/07/11 07:23:00;;;;;;;3.40;3.10;;;;;;;23.18;54.41;100316.50;10443255;28;20042;-74
2023/07/11 07:28:04;;;;;;;4.25;2.72;;;;;;;23.58;53.88;100311.00;10443852;28;20064;-75
2023/07/11 07:33:07;;;;;;;5.82;2.53;;;;;;;24.43;51.45;100304.75;10431747;28;20144;-74
2023/07/11 07:38:11;;;;;;;4.55;2.80;;;;;;;25.84;49.56;100303.59;10441092;28;20436;-74
2023/07/11 07:43:15;;;;;;;3.67;2.70;;;;;;;27.10;46.27;100296.53;10435603;28;20120;-74
2023/07/11 07:48:19;;;;;;;3.60;2.33;;;;;;;28.18;44.35;100290.84;10441416;28;20434;-75
2023/07/11 07:53:22;;;;;;;2.78;2.30;;;;;;;28.45;42.81;100283.69;10439634;28;20046;-74
2023/07/11 07:58:27;;;;;;;5.32;2.70;;;;;;;28.11;43.27;100277.16;10441484;28;20120;-73
2023/07/11 08:03:45;;;;;;;5.97;2.80;;;;;;;28.03;42.96;100269.28;10435792;28;20112;-75
2023/07/11 08:08:50;;;;;;;3.08;2.47;;;;;;;28.01;42.64;100269.50;10450012;28;20049;-75
2023/07/11 08:13:54;;;;;;;3.47;2.45;;;;;;;26.93;43.06;100260.53;10450835;28;20048;-75
2023/07/11 08:19:04;;;;;;;3.90;2.78;;;;;;;27.09;42.07;100256.25;10440093;28;20072;-75
2023/07/11 08:24:09;;;;;;;3.95;2.50;;;;;;;26.44;42.60;100251.47;10420283;28;20037;-77
2023/07/11 08:29:14;;;;;;;5.28;2.60;;;;;;;27.00;41.89;100246.66;10422871;28;20044;-75
2023/07/11 08:34:31;;;;;;;3.47;2.53;;;;;;;26.98;41.33;100243.28;10419544;28;20053;-74
2023/07/11 08:39:34;;;;;;;3.50;2.45;;;;;;;26.66;42.43;100242.69;10419556;28;20037;-75
2023/07/11 08:44:46;;;;;;;2.65;2.40;;;;;;;27.34;40.86;100224.84;10419333;28;20862;-74
2023/07/11 08:49:53;;;;;;;3.28;2.80;;;;;;;27.37;41.43;100227.13;10402752;28;20092;-76
2023/07/11 08:55:00;;;;;;;4.85;3.45;;;;;;;27.56;40.12;100222.38;10418070;28;20042;-75
2023/07/11 09:00:12;;;;;;;5.15;2.50;;;;;;;27.20;40.57;100217.91;10417139;28;20059;-75
2023/07/11 09:05:18;;;;;;;;;;;;;;;27.25;40.83;100212.53;10428315;28;20045;-75
2023/07/11 09:10:52;;;;;;;4.47;3.60;;;;;;;27.64;41.23;100223.94;10425624;28;19929;-74
2023/07/11 09:16:06;;;;;;;3.42;2.50;;;;;;;27.94;40.13;100201.69;10417240;28;20049;-75
2023/07/11 09:21:15;;;;;;;3.42;2.78;;;;;;;27.57;40.00;100210.28;10439439;28;20068;-76
2023/07/11 09:26:25;;;;;;;4.10;2.78;;;;;;;28.37;39.00;100189.31;10448940;28;20041;-75
2023/07/11 09:31:38;;;;;;;5.13;2.72;;;;;;;28.47;38.74;100186.75;10448913;28;20041;-75
2023/07/11 09:36:42;;;;;;;6.43;2.35;;;;;;;28.09;39.28;100188.25;10441696;28;20045;-75
2023/07/11 09:41:52;;;;;;;3.70;2.17;;;;;;;28.76;38.78;100184.81;10445754;28;20037;-75
2023/07/11 09:46:56;;;;;;;4.03;2.53;;;;;;;28.97;37.88;100174.94;10450732;28;20049;-76
2023/07/11 09:52:02;;;;;;;3.42;2.55;;;;;;;28.42;36.89;100176.44;10451980;28;20091;-75
2023/07/11 09:57:11;;;;;;;8.63;2.70;;;;;;;28.66;36.11;100163.38;10446205;28;20040;-75
2023/07/11 10:02:17;;;;;;;4.20;2.83;;;;;;;28.54;36.95;100170.06;10443458;28;20049;-75
2023/07/11 10:07:21;;;;;;;2.33;2.08;;;;;;;29.08;36.33;100167.69;10430577;28;20045;-76
2023/07/11 10:12:25;;;;;;;4.32;2.80;;;;;;;29.50;35.69;100151.41;10443250;28;20438;-75
2023/07/11 10:17:35;;;;;;;5.07;2.95;;;;;;;29.19;35.09;100141.03;10445414;28;20049;-75
2023/07/11 10:22:38;;;;;;;3.60;2.70;;;;;;;29.89;34.83;100137.53;10428467;28;20419;-75
2023/07/11 10:27:43;;;;;;;3.58;2.92;;;;;;;29.77;34.79;100139.63;10415395;28;20040;-75
2023/07/11 10:32:56;;;;;;;3.95;2.78;;;;;;;30.00;35.01;100132.97;10397927;28;20041;-75
2023/07/11 10:38:17;;;;;;;3.38;3.08;;;;;;;29.19;36.06;100122.50;10417609;28;20124;-76
2023/07/11 10:43:26;;;;;;;3.70;2.97;;;;;;;30.12;34.00;100119.00;10424642;28;20068;-75
2023/07/11 10:48:39;;;;;;;4.25;2.88;;;;;;;29.51;34.55;100130.97;10421261;28;20155;-76
2023/07/11 10:53:46;;;;;;;4.03;3.38;;;;;;;29.47;34.63;100112.38;10417631;28;20038;-77
2023/07/11 10:58:49;;;;;;;3.75;3.08;;;;;;;29.53;35.56;100123.22;10418671;28;20038;-76
2023/07/11 11:04:04;;;;;;;3.58;2.90;;;;;;;28.92;36.69;100112.13;10418509;28;20503;-75
2023/07/11 11:09:15;;;;;;;6.90;3.22;;;;;;;28.77;36.81;100103.59;10426988;28;20038;-76
2023/07/11 11:14:23;;;;;;;3.83;2.95;;;;;;;28.76;36.21;100098.31;10409347;28;20125;-76
2023/07/11 11:19:43;;;;;;;3.30;3.00;;;;;;;30.04;35.25;100087.91;10414499;28;20048;-75
2023/07/11 11:24:52;;;;;;;4.60;2.90;;;;;;;30.51;33.06;100077.28;10437417;28;20041;-75
2023/07/11 11:30:09;;;;;;;5.03;3.28;;;;;;;29.86;33.20;100070.81;10450619;28;20045;-76
2023/07/11 11:35:20;;;;;;;3.65;2.92;;;;;;;29.42;34.76;100073.56;10453418;28;20029;-76
2023/07/11 11:40:26;;;;;;;3.97;3.03;;;;;;;29.68;34.26;100061.75;10445809;28;20037;-76
2023/07/11 11:45:30;;;;;;;3.75;2.85;;;;;;;30.35;33.55;100060.50;10449167;28;20051;-75
2023/07/11 11:50:56;;;;;;;4.32;3.00;;;;;;;30.86;33.39;100049.03;10450116;28;20037;-76
2023/07/11 11:56:17;;;;;;;4.15;3.20;;;;;;;31.05;33.50;100041.94;10450314;28;20040;-76
2023/07/11 12:01:41;;;;;;;3.33;3.03;;;;;;;31.57;32.21;100041.06;10453391;28;20040;-75
2023/07/11 12:06:46;;;;;;;7.60;3.97;;;;;;;32.09;31.48;100019.84;10448955;28;20088;-75
2023/07/11 12:12:06;;;;;;;5.00;3.30;;;;;;;30.73;33.17;100025.38;10449381;28;20091;-76
2023/07/11 12:17:47;;;;;;;3.55;2.80;;;;;;;31.51;32.41;100013.56;10452284;28;20045;-75
2023/07/11 12:23:14;;;;;;;5.53;3.13;;;;;;;31.48;32.45;100012.16;10447167;28;20033;-76
2023/07/11 12:28:37;;;;;;;5.75;3.70;;;;;;;31.51;32.79;99999.69;10448986;28;20500;-75
2023/07/11 12:33:42;;;;;;;3.75;2.60;;;;;;;30.94;32.71;99998.59;10446439;28;20121;-77
2023/07/11 12:38:54;;;;;;;4.10;2.95;;;;;;;31.26;32.57;99998.50;10443733;28;20412;-76
2023/07/11 12:44:00;;;;;;;4.68;3.30;;;;;;;31.16;33.82;99989.25;10449390;28;20095;-76
2023/07/11 12:49:16;;;;;;;4.13;3.00;;;;;;;31.94;32.01;99998.41;10449987;28;20092;-76
2023/07/11 12:54:22;;;;;;;4.53;3.58;;;;;;;32.76;31.49;99981.75;10448384;28;20437;-75
2023/07/11 12:59:27;;;;;;;3.45;3.15;;;;;;;32.42;31.47;99989.84;10435838;28;20055;-76
2023/07/11 13:04:35;;;;;;;4.07;3.20;;;;;;;32.52;31.67;99975.91;10443815;28;20404;-77
2023/07/11 13:09:48;;;;;;;6.28;3.10;;;;;;;31.88;31.84;99973.72;10447099;28;20068;-77
2023/07/11 13:14:52;;;;;;;6.82;3.08;;;;;;;32.13;31.81;99961.75;10448421;28;20606;-76
2023/07/11 13:19:59;;;;;;;3.42;2.95;;;;;;;32.93;31.55;99967.50;10445594;28;20546;-76
2023/07/11 13:25:02;;;;;;;4.25;2.83;;;;;;;32.48;30.95;99958.16;10441504;28;20048;-76
2023/07/11 13:30:19;;;;;;;6.97;3.45;;;;;;;32.88;31.37;99948.03;10443978;28;20048;-76
2023/07/11 13:35:25;;;;;;;6.90;3.30;;;;;;;32.83;31.22;99945.28;10448522;28;20040;-75
2023/07/11 13:40:40;;;;;;;7.05;2.75;;;;;;;32.71;31.34;99942.81;10447307;28;20068;-77
2023/07/11 13:45:45;;;;;;;4.35;2.90;;;;;;;32.30;31.16;99954.00;10447157;28;20038;-76
2023/07/11 13:51:04;;;;;;;5.32;2.95;;;;;;;32.66;31.24;99929.75;10438976;28;20049;-78
2023/07/11 13:56:10;;;;;;;6.00;3.00;;;;;;;32.73;31.02;99926.69;10439802;28;20049;-77
2023/07/11 14:01:15;;;;;;;3.75;3.17;;;;;;;33.02;31.34;99923.22;10445057;28;20029;-77
2023/07/11 14:06:22;;;;;;;5.70;3.30;;;;;;;33.18;31.60;99912.91;10447423;28;20088;-77
2023/07/11 14:11:28;;;;;;;4.97;3.35;;;;;;;32.89;30.56;99900.50;10442534;28;20045;-76
2023/07/11 14:16:31;;;;;;;6.25;3.50;;;;;;;32.63;31.54;99904.47;10448240;28;20055;-76
2023/07/11 14:21:35;;;;;;;5.85;3.42;;;;;;;33.46;30.43;99891.84;10451821;28;20069;-76
2023/07/11 14:26:38;;;;;;;4.47;3.28;;;;;;;33.85;30.20;99882.69;10453451;28;20056;-75
2023/07/11 14:31:41;;;;;;;4.13;3.22;;;;;;;34.33;30.18;99885.56;10457195;28;20042;-77
2023/07/11 14:36:45;;;;;;;4.57;3.70;;;;;;;33.97;29.93;99888.69;10450965;28;20514;-77
2023/07/11 14:41:50;;;;;;;4.65;3.72;;;;;;;32.92;30.36;99876.84;10456241;28;20080;-76
2023/07/11 14:46:54;;;;;;;9.82;4.70;;;;;;;33.13;30.80;99865.59;10464269;28;20041;-76
2023/07/11 14:51:58;;;;;;;4.93;3.78;;;;;;;32.86;31.09;99869.66;10465086;28;20040;-76
2023/07/11 14:57:01;;;;;;;4.97;3.75;;;;;;;33.27;30.36;99863.88;10462612;28;20131;-77
2023/07/11 15:02:27;;;;;;;9.23;3.58;;;;;;;33.40;30.15;99854.88;10455248;28;20101;-77
2023/07/11 15:07:31;;;;;;;6.38;3.70;;;;;;;33.67;30.50;99842.44;10448973;28;20506;-76
2023/07/11 15:12:38;;;;;;;4.95;3.70;;;;;;;34.01;29.45;99847.13;10459424;28;20045;-75
2023/07/11 15:17:45;;;;;;;5.68;4.05;;;;;;;32.97;30.15;99837.88;10458837;28;20459;-76
2023/07/11 15:22:52;;;;;;;6.28;4.22;;;;;;;32.73;30.70;99831.34;10464709;28;20041;-76
2023/07/11 15:27:55;;;;;;;7.78;4.88;;;;;;;33.45;30.40;99821.44;10465225;28;20098;-75
2023/07/11 15:32:58;;;;;;;7.22;4.03;;;;;;;33.58;29.98;99831.06;10462492;28;20079;-76
2023/07/11 15:38:03;;;;;;;8.38;4.25;;;;;;;33.71;29.51;99808.16;10465314;28;20491;-76
2023/07/11 15:43:13;;;;;;;6.10;4.57;;;;;;;34.19;29.15;99805.44;10466344;28;20045;-77
2023/07/11 15:48:16;;;;;;;5.15;3.85;;;;;;;34.02;29.15;99805.06;10463822;28;20041;-76
2023/07/11 15:53:21;;;;;;;14.07;5.55;;;;;;;33.90;30.37;99804.63;10442009;28;20484;-78
2023/07/11 15:58:25;;;;;;;6.82;4.57;;;;;;;33.35;30.26;99801.19;10446927;28;20033;-77
2023/07/11 16:03:29;;;;;;;7.95;4.88;;;;;;;33.64;30.06;99785.38;10467524;28;20519;-77
2023/07/11 16:08:37;;;;;;;5.60;4.20;;;;;;;33.80;29.88;99786.09;10445981;28;20071;-77
2023/07/11 16:13:40;;;;;;;7.05;5.07;;;;;;;33.51;30.06;99786.03;10447463;28;20044;-76
2023/07/11 16:18:43;;;;;;;5.88;4.95;;;;;;;33.76;30.14;99774.72;10446084;28;20480;-77
2023/07/11 16:23:47;;;;;;;7.13;4.90;;;;;;;34.58;29.66;99770.16;10442041;28;20037;-77
2023/07/11 16:28:50;;;;;;;5.70;4.80;;;;;;;35.87;28.60;99765.03;10443837;28;20045;-77
2023/07/11 16:33:53;;;;;;;6.07;4.82;;;;;;;35.66;27.81;99763.78;10448914;28;20041;-76
2023/07/11 16:38:57;;;;;;;8.52;4.93;;;;;;;34.31;29.06;99754.03;10449390;28;20048;-77
2023/07/11 16:44:00;;;;;;;9.52;5.65;;;;;;;37.04;26.38;99749.72;10443820;28;20036;-77
2023/07/11 16:49:09;;;;;;;9.77;5.13;;;;;;;39.40;24.08;99736.19;10442329;28;20052;-76
2023/07/11 16:54:17;;;;;;;8.55;6.15;;;;;;;40.31;23.12;99722.78;10447654;28;20036;-77
2023/07/11 16:59:23;;;;;;;6.47;5.47;;;;;;;40.71;22.81;99715.94;10450163;28;20044;-77
2023/07/11 17:04:27;;;;;;;7.63;5.47;;;;;;;38.77;24.55;99707.66;10444515;28;20120;-78
2023/07/11 17:09:33;;;;;;;6.55;5.30;;;;;;;37.47;25.68;99707.25;10443172;28;20040;-78
2023/07/11 17:14:37;;;;;;;8.50;5.22;;;;;;;36.77;25.82;99686.28;10441036;28;20393;-77
2023/07/11 17:19:39;;;;;;;5.32;4.82;;;;;;;37.17;25.85;99684.47;10444133;28;20070;-76
2023/07/11 17:24:44;;;;;;;8.52;5.63;;;;;;;40.04;23.80;99669.84;10448134;28;20045;-76
2023/07/11 17:29:48;;;;;;;7.25;5.28;;;;;;;41.76;22.20;99668.63;10443579;28;20044;-77
2023/07/11 17:34:52;;;;;;;7.30;5.93;;;;;;;41.53;22.93;99659.00;10444032;28;20052;-77
2023/07/11 17:39:58;;;;;;;14.15;5.70;;;;;;;43.23;22.26;99646.84;10440536;28;20053;-76
2023/07/11 17:45:02;;;;;;;15.00;6.28;;;;;;;42.66;22.30;99644.06;10446131;28;20037;-76
2023/07/11 17:50:26;;;;;;;13.45;5.95;;;;;;;40.40;24.43;99629.06;10447728;28;20130;-76
2023/07/11 17:55:31;;;;;;;8.95;5.65;;;;;;;38.36;26.74;99637.97;10443589;28;20488;-77
2023/07/11 18:00:34;;;;;;;12.00;5.53;;;;;;;35.74;28.94;99631.78;10432588;28;20049;-76
2023/07/11 18:05:37;;;;;;;7.82;5.70;;;;;;;33.97;31.43;99624.88;10422819;28;20052;-77
2023/07/11 18:10:42;;;;;;;6.65;5.88;;;;;;;32.78;32.75;99617.22;10429790;28;20045;-76
2023/07/11 18:15:46;;;;;;;9.25;6.03;;;;;;;32.20;33.85;99609.56;10430700;28;20040;-76
2023/07/11 18:20:49;;;;;;;6.05;5.47;;;;;;;31.78;35.63;99608.88;10439805;28;20045;-76
2023/07/11 18:25:57;;;;;;;13.45;6.40;;;;;;;31.44;36.46;99592.06;10451530;28;20033;-76
2023/07/11 18:31:00;;;;;;;9.90;5.82;;;;;;;30.96;38.51;99588.78;10457650;28;20048;-76
2023/07/11 18:36:04;;;;;;;10.50;5.72;;;;;;;30.79;38.83;99585.50;10444896;28;20041;-76
2023/07/11 18:41:10;;;;;;;9.98;6.40;;;;;;;30.62;39.11;99581.03;10446033;28;20044;-76
2023/07/11 18:46:14;;;;;;;9.40;6.22;;;;;;;30.40;40.22;99575.75;10444240;28;20033;-76
2023/07/11 18:51:17;;;;;;;11.38;5.80;;;;;;;30.01;40.46;99561.53;10438788;28;20037;-75
2023/07/11 18:56:22;;;;;;;13.73;6.57;;;;;;;29.79;41.06;99564.53;10439673;28;20033;-76
2023/07/11 19:01:25;;;;;;;7.57;6.10;;;;;;;29.72;41.69;99562.00;10453602;28;20040;-75
2023/07/11 19:06:28;;;;;;;11.02;6.43;;;;;;;29.52;42.77;99557.19;10449577;28;20083;-76
2023/07/11 19:11:33;;;;;;;7.63;6.13;;;;;;;29.44;41.88;99546.66;10450410;28;20083;-76
2023/07/11 19:16:36;;;;;;;9.10;5.30;;;;;;;29.26;42.24;99542.41;10445017;28;20037;-76
2023/07/11 19:21:39;;;;;;;9.02;5.55;;;;;;;29.09;42.05;99536.22;10425941;28;20053;-75
2023/07/11 19:26:45;;;;;;;8.55;5.25;;;;;;;28.86;42.88;99512.56;10420211;28;20408;-76
2023/07/11 19:31:49;;;;;;;12.00;5.97;;;;;;;28.68;43.31;99505.53;10424186;28;20642;-75
2023/07/11 19:36:53;;;;;;;8.77;5.85;;;;;;;28.48;43.52;99506.19;10414885;28;20065;-75
2023/07/11 19:41:58;;;;;;;9.70;6.00;;;;;;;28.30;44.17;99492.78;10419845;28;20041;-74
2023/07/11 19:47:00;;;;;;;10.18;7.05;;;;;;;28.16;44.03;99489.63;10407049;28;20405;-74
2023/07/11 19:52:09;;;;;;;10.07;6.38;;;;;;;28.01;44.65;99482.88;10422430;28;20076;-76
2023/07/11 19:57:18;;;;;;;11.38;5.90;;;;;;;27.88;45.05;99494.31;10408483;28;20455;-75
2023/07/11 20:02:21;;;;;;;9.57;5.97;;;;;;;27.80;45.21;99484.56;10397309;28;20038;-75
2023/07/11 20:07:26;;;;;;;10.88;6.18;;;;;;;27.74;45.52;99493.88;10387921;28;20033;-76
2023/07/11 20:12:34;;;;;;;7.47;6.07;;;;;;;27.55;46.33;99493.38;10394968;28;20044;-76
2023/07/11 20:17:37;;;;;;;8.93;6.05;;;;;;;27.40;46.41;99498.75;10417496;28;20049;-74
2023/07/11 20:22:39;;;;;;;9.02;6.65;;;;;;;27.16;47.04;99495.38;10413856;28;20041;-75
2023/07/11 20:27:44;;;;;;;9.70;6.72;;;;;;;26.89;47.50;99484.25;10408462;28;20045;-75
2023/07/11 20:32:47;;;;;;;9.57;6.53;;;;;;;26.70;47.06;99491.94;10388487;28;20045;-76
2023/07/11 20:37:50;;;;;;;12.13;6.30;;;;;;;26.61;47.19;99482.44;10395106;28;20064;-75
2023/07/11 20:42:54;;;;;;;8.75;6.53;;;;;;;26.56;46.98;99479.59;10413623;28;20390;-75
2023/07/11 20:47:57;;;;;;;10.60;6.82;;;;;;;26.54;47.74;99471.56;10418232;28;20045;-75
2023/07/11 20:53:02;;;;;;;8.23;6.20;;;;;;;26.37;48.34;99445.97;10410470;28;20037;-75
2023/07/11 20:58:07;;;;;;;8.90;6.22;;;;;;;26.22;48.72;99443.78;10406541;28;20033;-75
2023/07/11 21:03:12;;;;;;;11.95;6.43;;;;;;;26.10;50.08;99440.28;10420723;28;20046;-76
2023/07/11 21:08:25;;;;;;;13.15;6.63;;;;;;;25.91;50.29;99426.75;10414904;28;20064;-75
2023/07/11 21:13:29;;;;;;;9.05;6.82;;;;;;;25.91;50.70;99436.94;10398296;28;20041;-75
2023/07/11 21:18:32;;;;;;;13.70;6.60;;;;;;;25.58;50.05;99425.59;10411357;28;20052;-74
2023/07/11 21:23:35;;;;;;;7.45;6.28;;;;;;;25.61;50.69;99427.84;10443198;28;20037;-75
2023/07/11 21:28:39;;;;;;;8.73;6.63;;;;;;;25.50;51.41;99427.91;10446830;28;20526;-75
2023/07/11 21:33:43;;;;;;;17.00;7.70;;;;;;;25.24;52.27;99441.16;10445519;28;20044;-74
2023/07/11 21:38:48;;;;;;;9.15;5.88;;;;;;;25.02;52.71;99429.13;10437058;28;20099;-74
2023/07/11 21:43:52;;;;;;;12.50;6.55;;;;;;;24.98;51.83;99432.38;10431261;28;20413;-75
2023/07/11 21:48:56;;;;;;;8.18;6.63;;;;;;;24.92;51.52;99426.97;10433891;28;20053;-74
2023/07/11 21:53:59;;;;;;;10.25;6.82;;;;;;;25.09;51.77;99430.66;10434244;28;20045;-75
2023/07/11 21:59:04;;;;;;;10.63;7.05;;;;;;;25.01;52.07;99436.50;10438792;28;20052;-75
2023/07/11 22:04:07;;;;;;;11.77;6.40;;;;;;;24.94;52.48;99430.34;10433458;28;20041;-75
2023/07/11 22:09:16;;;;;;;11.38;6.95;;;;;;;25.04;52.90;99432.47;10435381;28;20049;-75
2023/07/11 22:14:21;;;;;;;9.75;6.38;;;;;;;24.94;52.72;99416.59;10430129;28;20037;-75
2023/07/11 22:19:24;;;;;;;12.77;6.78;;;;;;;24.81;53.26;99401.22;10433423;28;20037;-74
2023/07/11 22:24:27;;;;;;;12.85;6.80;;;;;;;24.37;53.72;99388.94;10438972;28;20044;-74
2023/07/11 22:29:32;;;;;;;12.85;7.13;;;;;;;24.39;54.44;99368.44;10434005;28;20041;-75
2023/07/11 22:34:34;;;;;;;12.05;7.10;;;;;;;24.42;54.19;99378.13;10439666;28;20079;-75
2023/07/11 22:39:37;;;;;;;10.15;6.75;;;;;;;23.93;54.94;99378.31;10443710;28;20146;-74
2023/07/11 22:44:41;;;;;;;11.20;5.93;;;;;;;23.77;55.35;99368.03;10440851;28;20041;-74
2023/07/11 22:49:44;;;;;;;13.30;6.78;;;;;;;23.51;56.46;99353.66;10445434;28;20046;-74
2023/07/11 22:54:47;;;;;;;10.30;6.75;;;;;;;22.97;58.90;99366.38;10438512;28;20038;-75
2023/07/11 22:59:51;;;;;;;11.20;6.90;;;;;;;22.90;59.53;99371.09;10445529;28;20037;-75
2023/07/11 23:04:54;;;;;;;14.80;7.38;;;;;;;22.28;61.90;99374.72;10434267;28;20376;-75
2023/07/11 23:09:57;;;;;;;14.75;6.60;;;;;;;22.03;63.01;99357.50;10439779;28;20043;-74
2023/07/11 23:15:01;;;;;;;8.85;7.00;;;;;;;22.43;61.13;99355.22;10442800;28;20044;-74
2023/07/11 23:20:17;;;;;;;9.10;6.57;;;;;;;22.72;59.76;99359.09;10439892;28;20045;-74
2023/07/11 23:25:25;;;;;;;9.50;5.88;;;;;;;22.68;59.20;99348.84;10442645;28;20037;-73
2023/07/11 23:30:32;;;;;;;8.63;5.22;;;;;;;22.67;59.28;99360.84;10436079;28;20420;-75